sensor_id;sensor_type;location;lat;lon;timestamp;pressure;altitude;pressure_sealevel;temperature;humidity
33845;BME280;20145;43.118;25.694;2023-03-14T00:00:45;99747.59;;;3.93;63.21
33845;BME280;20145;43.118;25.694;2023-03-14T00:03:11;99716.63;;;3.74;63.65
33845;BME280;20145;43.118;25.694;2023-03-14T00:05:36;99758.81;;;4.01;62.73
33845;BME280;20145;43.118;25.694;2023-03-14T00:08:02;99745.91;;;3.93;63.21
33845;BME280;20145;43.118;25.694;2023-03-14T00:10:27;99745.97;;;3.96;62.32
33845;BME280;20145;43.118;25.694;2023-03-14T00:12:53;99752.28;;;4.14;61.20
33845;BME280;20145;43.118;25.694;2023-03-14T00:15:19;99749.88;;;4.21;62.16
33845;BME280;20145;43.118;25.694;2023-03-14T00:17:44;99749.72;;;4.15;62.15
33845;BME280;20145;43.118;25.694;2023-03-14T00:20:10;99732.38;;;3.97;62.51
33845;BME280;20145;43.118;25.694;2023-03-14T00:22:37;99754.44;;;3.95;61.97
33845;BME280;20145;43.118;25.694;2023-03-14T00:25:04;99747.53;;;3.90;62.43
33845;BME280;20145;43.118;25.694;2023-03-14T00:27:30;99735.50;;;3.83;62.76
33845;BME280;20145;43.118;25.694;2023-03-14T00:29:56;99729.38;;;3.76;63.16
33845;BME280;20145;43.118;25.694;2023-03-14T00:32:21;99730.25;;;3.76;63.36
33845;BME280;20145;43.118;25.694;2023-03-14T00:34:47;99724.28;;;3.76;63.80
33845;BME280;20145;43.118;25.694;2023-03-14T00:37:13;99720.72;;;3.68;63.01
33845;BME280;20145;43.118;25.694;2023-03-14T00:39:38;99720.53;;;3.60;62.91
33845;BME280;20145;43.118;25.694;2023-03-14T00:42:04;99729.78;;;3.53;63.38
33845;BME280;20145;43.118;25.694;2023-03-14T00:44:30;99719.41;;;3.46;63.57
33845;BME280;20145;43.118;25.694;2023-03-14T00:46:55;99720.91;;;3.36;64.13
33845;BME280;20145;43.118;25.694;2023-03-14T00:49:22;99704.47;;;3.23;63.67
33845;BME280;20145;43.118;25.694;2023-03-14T00:51:47;99713.84;;;3.24;64.25
33845;BME280;20145;43.118;25.694;2023-03-14T00:54:13;99685.41;;;3.06;63.95
33845;BME280;20145;43.118;25.694;2023-03-14T00:56:38;99702.41;;;3.07;64.31
33845;BME280;20145;43.118;25.694;2023-03-14T00:59:04;99698.09;;;3.04;64.31
33845;BME280;20145;43.118;25.694;2023-03-14T01:01:29;99691.75;;;2.87;63.78
33845;BME280;20145;43.118;25.694;2023-03-14T01:03:55;99689.00;;;2.79;64.24
33845;BME280;20145;43.118;25.694;2023-03-14T01:06:24;99691.41;;;2.73;64.78
33845;BME280;20145;43.118;25.694;2023-03-14T01:08:51;99669.16;;;2.66;64.74
33845;BME280;20145;43.118;25.694;2023-03-14T01:11:19;99677.91;;;2.76;65.36
33845;BME280;20145;43.118;25.694;2023-03-14T01:13:46;99676.84;;;2.67;65.23
33845;BME280;20145;43.118;25.694;2023-03-14T01:16:12;99687.94;;;2.70;65.25
33845;BME280;20145;43.118;25.694;2023-03-14T01:18:39;99680.16;;;2.63;64.73
33845;BME280;20145;43.118;25.694;2023-03-14T01:21:26;99664.50;;;2.48;64.30
33845;BME280;20145;43.118;25.694;2023-03-14T01:23:53;99674.81;;;2.53;65.17
33845;BME280;20145;43.118;25.694;2023-03-14T01:26:20;99659.19;;;2.39;64.86
33845;BME280;20145;43.118;25.694;2023-03-14T01:28:48;99675.19;;;2.33;65.73
33845;BME280;20145;43.118;25.694;2023-03-14T01:31:14;99668.94;;;2.22;65.74
33845;BME280;20145;43.118;25.694;2023-03-14T01:33:41;99656.09;;;2.17;66.37
33845;BME280;20145;43.118;25.694;2023-03-14T01:36:08;99658.66;;;2.17;66.95
33845;BME280;20145;43.118;25.694;2023-03-14T01:38:35;99672.28;;;2.19;65.46
33845;BME280;20145;43.118;25.694;2023-03-14T01:41:02;99663.69;;;2.16;66.17
33845;BME280;20145;43.118;25.694;2023-03-14T01:43:28;99659.66;;;2.24;66.53
33845;BME280;20145;43.118;25.694;2023-03-14T01:48:40;99655.41;;;2.23;65.74
33845;BME280;20145;43.118;25.694;2023-03-14T01:51:11;99640.78;;;2.16;65.95
33845;BME280;20145;43.118;25.694;2023-03-14T01:53:41;99648.47;;;2.19;66.38
33845;BME280;20145;43.118;25.694;2023-03-14T01:56:09;99634.59;;;2.06;65.86
33845;BME280;20145;43.118;25.694;2023-03-14T01:58:37;99644.03;;;2.10;66.14
33845;BME280;20145;43.118;25.694;2023-03-14T02:01:04;99632.91;;;2.05;66.70
33845;BME280;20145;43.118;25.694;2023-03-14T02:03:37;99640.47;;;2.04;67.10
33845;BME280;20145;43.118;25.694;2023-03-14T02:06:06;99653.16;;;2.02;66.46
33845;BME280;20145;43.118;25.694;2023-03-14T02:08:35;99642.09;;;2.00;66.49
33845;BME280;20145;43.118;25.694;2023-03-14T02:11:02;99633.41;;;1.93;67.76
33845;BME280;20145;43.118;25.694;2023-03-14T02:13:27;99640.56;;;2.07;67.19
33845;BME280;20145;43.118;25.694;2023-03-14T02:15:53;99624.16;;;1.95;66.98
33845;BME280;20145;43.118;25.694;2023-03-14T02:18:19;99636.88;;;1.95;66.93
33845;BME280;20145;43.118;25.694;2023-03-14T02:20:50;99643.66;;;1.95;66.94
33845;BME280;20145;43.118;25.694;2023-03-14T02:26:25;99628.25;;;1.90;67.28
33845;BME280;20145;43.118;25.694;2023-03-14T02:28:53;99641.91;;;1.94;67.86
33845;BME280;20145;43.118;25.694;2023-03-14T02:31:22;99629.88;;;1.88;67.16
33845;BME280;20145;43.118;25.694;2023-03-14T02:33:48;99627.25;;;1.85;67.18
33845;BME280;20145;43.118;25.694;2023-03-14T02:36:15;99617.78;;;1.78;67.35
33845;BME280;20145;43.118;25.694;2023-03-14T02:38:46;99629.81;;;1.85;67.19
33845;BME280;20145;43.118;25.694;2023-03-14T02:41:13;99627.34;;;1.88;67.58
33845;BME280;20145;43.118;25.694;2023-03-14T02:43:38;99632.72;;;1.99;67.57
33845;BME280;20145;43.118;25.694;2023-03-14T02:46:05;99635.47;;;2.07;67.12
33845;BME280;20145;43.118;25.694;2023-03-14T02:48:58;99626.91;;;2.05;66.43
33845;BME280;20145;43.118;25.694;2023-03-14T02:51:24;99634.63;;;2.08;66.39
33845;BME280;20145;43.118;25.694;2023-03-14T02:53:51;99633.69;;;2.03;66.51
33845;BME280;20145;43.118;25.694;2023-03-14T02:56:16;99630.22;;;2.00;66.20
33845;BME280;20145;43.118;25.694;2023-03-14T02:58:42;99645.69;;;2.08;66.10
33845;BME280;20145;43.118;25.694;2023-03-14T03:01:07;99645.50;;;2.02;65.95
33845;BME280;20145;43.118;25.694;2023-03-14T03:03:33;99624.97;;;1.94;66.43
33845;BME280;20145;43.118;25.694;2023-03-14T03:05:59;99656.81;;;2.12;65.79
33845;BME280;20145;43.118;25.694;2023-03-14T03:08:26;99654.34;;;2.15;65.82
33845;BME280;20145;43.118;25.694;2023-03-14T03:10:52;99660.41;;;2.20;65.75
33845;BME280;20145;43.118;25.694;2023-03-14T03:13:18;99658.66;;;2.17;65.29
33845;BME280;20145;43.118;25.694;2023-03-14T03:15:44;99660.28;;;2.15;65.71
33845;BME280;20145;43.118;25.694;2023-03-14T03:18:10;99656.72;;;2.09;66.78
33845;BME280;20145;43.118;25.694;2023-03-14T03:20:36;99653.16;;;2.02;65.99
33845;BME280;20145;43.118;25.694;2023-03-14T03:23:02;99662.44;;;2.00;64.84
33845;BME280;20145;43.118;25.694;2023-03-14T03:25:28;99668.34;;;1.99;66.01
33845;BME280;20145;43.118;25.694;2023-03-14T03:27:53;99666.56;;;1.96;65.59
33845;BME280;20145;43.118;25.694;2023-03-14T03:30:19;99647.59;;;1.84;65.56
33845;BME280;20145;43.118;25.694;2023-03-14T03:32:45;99660.94;;;1.75;66.01
33845;BME280;20145;43.118;25.694;2023-03-14T03:35:11;99654.00;;;1.71;66.31
33845;BME280;20145;43.118;25.694;2023-03-14T03:37:37;99653.00;;;1.64;65.91
33845;BME280;20145;43.118;25.694;2023-03-14T03:40:03;99657.16;;;1.62;66.09
33845;BME280;20145;43.118;25.694;2023-03-14T03:42:33;99654.47;;;1.56;66.86
33845;BME280;20145;43.118;25.694;2023-03-14T03:45:00;99651.00;;;1.54;66.38
33845;BME280;20145;43.118;25.694;2023-03-14T03:47:26;99648.31;;;1.49;66.04
33845;BME280;20145;43.118;25.694;2023-03-14T03:49:52;99650.69;;;1.42;66.16
33845;BME280;20145;43.118;25.694;2023-03-14T03:52:18;99652.31;;;1.40;66.02
33845;BME280;20145;43.118;25.694;2023-03-14T03:54:44;99635.91;;;1.30;66.65
33845;BME280;20145;43.118;25.694;2023-03-14T03:57:10;99627.59;;;1.36;67.44
33845;BME280;20145;43.118;25.694;2023-03-14T03:59:35;99634.47;;;1.38;67.19
33845;BME280;20145;43.118;25.694;2023-03-14T04:02:01;99611.00;;;1.17;66.68
33845;BME280;20145;43.118;25.694;2023-03-14T04:04:27;99634.84;;;1.22;67.10
33845;BME280;20145;43.118;25.694;2023-03-14T04:06:52;99614.03;;;1.05;66.81
33845;BME280;20145;43.118;25.694;2023-03-14T04:09:18;99619.34;;;1.13;66.83
33845;BME280;20145;43.118;25.694;2023-03-14T04:11:43;99610.78;;;1.09;67.18
33845;BME280;20145;43.118;25.694;2023-03-14T04:14:09;99610.94;;;1.15;67.04
33845;BME280;20145;43.118;25.694;2023-03-14T04:16:35;99602.28;;;1.08;68.11
33845;BME280;20145;43.118;25.694;2023-03-14T04:19:01;99594.88;;;1.16;67.77
33845;BME280;20145;43.118;25.694;2023-03-14T04:21:27;99579.44;;;1.10;67.91
33845;BME280;20145;43.118;25.694;2023-03-14T04:23:52;99593.31;;;1.21;67.71
33845;BME280;20145;43.118;25.694;2023-03-14T04:26:18;99588.41;;;1.27;67.85
33845;BME280;20145;43.118;25.694;2023-03-14T04:28:44;99577.66;;;1.36;68.07
33845;BME280;20145;43.118;25.694;2023-03-14T04:31:12;99574.50;;;1.45;68.12
33845;BME280;20145;43.118;25.694;2023-03-14T04:33:38;99581.50;;;1.53;67.67
33845;BME280;20145;43.118;25.694;2023-03-14T04:36:04;99555.97;;;1.49;67.52
33845;BME280;20145;43.118;25.694;2023-03-14T04:38:30;99567.41;;;1.66;68.38
33845;BME280;20145;43.118;25.694;2023-03-14T04:40:56;99563.75;;;1.55;67.93
33845;BME280;20145;43.118;25.694;2023-03-14T04:43:22;99567.41;;;1.66;67.71
33845;BME280;20145;43.118;25.694;2023-03-14T04:45:47;99560.78;;;1.71;66.66
33845;BME280;20145;43.118;25.694;2023-03-14T04:48:14;99561.63;;;1.70;66.87
33845;BME280;20145;43.118;25.694;2023-03-14T04:50:39;99559.84;;;1.68;66.31
33845;BME280;20145;43.118;25.694;2023-03-14T04:53:05;99551.13;;;1.58;65.96
33845;BME280;20145;43.118;25.694;2023-03-14T04:55:32;99557.16;;;1.62;65.75
33845;BME280;20145;43.118;25.694;2023-03-14T04:57:58;99573.56;;;1.74;66.00
33845;BME280;20145;43.118;25.694;2023-03-14T05:00:24;99567.00;;;1.83;66.31
33845;BME280;20145;43.118;25.694;2023-03-14T05:02:49;99577.44;;;1.92;66.55
33845;BME280;20145;43.118;25.694;2023-03-14T05:05:15;99576.09;;;2.06;66.16
33845;BME280;20145;43.118;25.694;2023-03-14T05:07:41;99572.03;;;2.14;66.44
33845;BME280;20145;43.118;25.694;2023-03-14T05:10:07;99546.66;;;2.17;66.22
33845;BME280;20145;43.118;25.694;2023-03-14T05:12:33;99567.63;;;2.43;66.10
33845;BME280;20145;43.118;25.694;2023-03-14T05:14:58;99543.00;;;2.42;66.14
33845;BME280;20145;43.118;25.694;2023-03-14T05:17:24;99563.22;;;2.74;64.93
33845;BME280;20145;43.118;25.694;2023-03-14T05:19:49;99573.81;;;2.93;65.29
33845;BME280;20145;43.118;25.694;2023-03-14T05:22:15;99569.91;;;3.10;64.91
33845;BME280;20145;43.118;25.694;2023-03-14T05:24:41;99568.59;;;3.27;64.56
33845;BME280;20145;43.118;25.694;2023-03-14T05:27:06;99560.38;;;3.42;63.76
33845;BME280;20145;43.118;25.694;2023-03-14T05:29:32;99566.56;;;3.55;63.87
33845;BME280;20145;43.118;25.694;2023-03-14T05:31:58;99558.22;;;3.64;63.60
33845;BME280;20145;43.118;25.694;2023-03-14T05:34:23;99563.59;;;3.79;63.19
33845;BME280;20145;43.118;25.694;2023-03-14T05:36:49;99559.72;;;4.01;62.60
33845;BME280;20145;43.118;25.694;2023-03-14T05:39:14;99551.59;;;4.25;62.46
33845;BME280;20145;43.118;25.694;2023-03-14T05:41:40;99551.97;;;4.51;62.14
33845;BME280;20145;43.118;25.694;2023-03-14T05:44:05;99542.00;;;4.66;62.13
33845;BME280;20145;43.118;25.694;2023-03-14T05:46:31;99544.78;;;4.85;60.72
33845;BME280;20145;43.118;25.694;2023-03-14T05:49:00;99538.19;;;5.02;60.05
33845;BME280;20145;43.118;25.694;2023-03-14T05:51:25;99544.47;;;5.27;58.25
33845;BME280;20145;43.118;25.694;2023-03-14T05:53:51;99529.28;;;5.44;57.55
33845;BME280;20145;43.118;25.694;2023-03-14T05:56:17;99538.03;;;5.63;55.59
33845;BME280;20145;43.118;25.694;2023-03-14T05:58:43;99524.41;;;5.70;54.28
33845;BME280;20145;43.118;25.694;2023-03-14T06:01:09;99540.03;;;5.95;54.88
33845;BME280;20145;43.118;25.694;2023-03-14T06:03:34;99536.81;;;6.16;54.59
33845;BME280;20145;43.118;25.694;2023-03-14T06:06:00;99541.22;;;6.32;52.77
33845;BME280;20145;43.118;25.694;2023-03-14T06:08:26;99543.78;;;6.32;52.93
33845;BME280;20145;43.118;25.694;2023-03-14T06:10:52;99548.88;;;6.34;52.96
33845;BME280;20145;43.118;25.694;2023-03-14T06:13:18;99549.75;;;6.37;52.73
33845;BME280;20145;43.118;25.694;2023-03-14T06:15:44;99566.03;;;6.38;53.68
33845;BME280;20145;43.118;25.694;2023-03-14T06:18:09;99564.34;;;6.44;53.71
33845;BME280;20145;43.118;25.694;2023-03-14T06:20:36;99560.16;;;6.56;53.95
33845;BME280;20145;43.118;25.694;2023-03-14T06:23:05;99551.63;;;6.61;52.72
33845;BME280;20145;43.118;25.694;2023-03-14T06:25:32;99553.41;;;6.73;52.56
33845;BME280;20145;43.118;25.694;2023-03-14T06:27:57;99542.34;;;6.77;52.32
33845;BME280;20145;43.118;25.694;2023-03-14T06:30:23;99541.47;;;6.78;52.77
33845;BME280;20145;43.118;25.694;2023-03-14T06:32:48;99538.97;;;6.87;52.86
33845;BME280;20145;43.118;25.694;2023-03-14T06:35:14;99543.28;;;7.01;52.42
33845;BME280;20145;43.118;25.694;2023-03-14T06:37:39;99540.78;;;7.08;53.14
33845;BME280;20145;43.118;25.694;2023-03-14T06:40:05;99529.66;;;7.09;53.28
33845;BME280;20145;43.118;25.694;2023-03-14T06:42:32;99534.81;;;7.17;52.91
33845;BME280;20145;43.118;25.694;2023-03-14T06:44:58;99539.16;;;7.29;53.65
33845;BME280;20145;43.118;25.694;2023-03-14T06:47:24;99540.91;;;7.41;52.91
33845;BME280;20145;43.118;25.694;2023-03-14T06:49:49;99540.06;;;7.46;52.05
33845;BME280;20145;43.118;25.694;2023-03-14T06:52:15;99531.50;;;7.52;52.25
33845;BME280;20145;43.118;25.694;2023-03-14T06:54:40;99540.06;;;7.57;51.83
33845;BME280;20145;43.118;25.694;2023-03-14T06:57:06;99533.22;;;7.48;51.34
33845;BME280;20145;43.118;25.694;2023-03-14T06:59:31;99529.81;;;7.57;51.61
33845;BME280;20145;43.118;25.694;2023-03-14T07:01:57;99533.25;;;7.67;52.48
33845;BME280;20145;43.118;25.694;2023-03-14T07:04:22;99528.94;;;7.70;53.48
33845;BME280;20145;43.118;25.694;2023-03-14T07:06:48;99530.69;;;7.77;52.96
33845;BME280;20145;43.118;25.694;2023-03-14T07:09:14;99519.56;;;7.83;53.17
33845;BME280;20145;43.118;25.694;2023-03-14T07:11:42;99505.88;;;7.90;52.66
33845;BME280;20145;43.118;25.694;2023-03-14T07:14:08;99513.59;;;8.15;51.61
33845;BME280;20145;43.118;25.694;2023-03-14T07:16:33;99506.72;;;8.21;51.32
33845;BME280;20145;43.118;25.694;2023-03-14T07:19:00;99504.13;;;8.35;52.03
33845;BME280;20145;43.118;25.694;2023-03-14T07:21:26;99495.56;;;8.47;51.87
33845;BME280;20145;43.118;25.694;2023-03-14T07:23:51;99459.59;;;8.44;51.20
33845;BME280;20145;43.118;25.694;2023-03-14T07:26:18;99486.06;;;8.74;51.06
33845;BME280;20145;43.118;25.694;2023-03-14T07:28:43;99465.47;;;8.81;50.54
33845;BME280;20145;43.118;25.694;2023-03-14T07:31:09;99496.19;;;9.15;51.37
33845;BME280;20145;43.118;25.694;2023-03-14T07:33:35;99496.94;;;9.32;50.58
33845;BME280;20145;43.118;25.694;2023-03-14T07:36:01;99486.56;;;9.45;50.26
33845;BME280;20145;43.118;25.694;2023-03-14T07:38:27;99478.81;;;9.49;50.05
33845;BME280;20145;43.118;25.694;2023-03-14T07:41:03;99482.22;;;9.54;50.66
33845;BME280;20145;43.118;25.694;2023-03-14T07:43:29;99467.56;;;9.63;50.96
33845;BME280;20145;43.118;25.694;2023-03-14T07:45:55;99478.63;;;9.77;50.65
33845;BME280;20145;43.118;25.694;2023-03-14T07:48:21;99463.03;;;9.95;49.96
33845;BME280;20145;43.118;25.694;2023-03-14T07:50:50;99461.97;;;10.16;49.33
33845;BME280;20145;43.118;25.694;2023-03-14T07:53:16;99440.38;;;10.25;48.67
33845;BME280;20145;43.118;25.694;2023-03-14T07:55:41;99455.63;;;10.49;42.40
33845;BME280;20145;43.118;25.694;2023-03-14T07:58:07;99452.00;;;10.67;40.66
33845;BME280;20145;43.118;25.694;2023-03-14T08:00:32;99435.53;;;10.78;39.38
33845;BME280;20145;43.118;25.694;2023-03-14T08:02:58;99443.03;;;10.96;38.92
33845;BME280;20145;43.118;25.694;2023-03-14T08:05:24;99425.59;;;11.13;38.31
33845;BME280;20145;43.118;25.694;2023-03-14T08:07:49;99417.78;;;11.18;37.74
33845;BME280;20145;43.118;25.694;2023-03-14T08:10:16;99424.44;;;11.33;38.17
33845;BME280;20145;43.118;25.694;2023-03-14T08:12:52;99423.38;;;11.48;37.92
33845;BME280;20145;43.118;25.694;2023-03-14T08:15:18;99418.06;;;11.57;38.04
33845;BME280;20145;43.118;25.694;2023-03-14T08:17:44;99414.44;;;11.67;37.54
33845;BME280;20145;43.118;25.694;2023-03-14T08:20:10;99414.16;;;11.86;37.88
33845;BME280;20145;43.118;25.694;2023-03-14T08:22:38;99404.53;;;11.95;36.26
33845;BME280;20145;43.118;25.694;2023-03-14T08:25:04;99413.56;;;12.19;37.26
33845;BME280;20145;43.118;25.694;2023-03-14T08:27:30;99403.78;;;12.35;36.43
33845;BME280;20145;43.118;25.694;2023-03-14T08:29:55;99418.97;;;12.52;35.85
33845;BME280;20145;43.118;25.694;2023-03-14T08:32:21;99406.69;;;12.62;35.22
33845;BME280;20145;43.118;25.694;2023-03-14T08:34:49;99398.03;;;12.63;35.11
33845;BME280;20145;43.118;25.694;2023-03-14T08:37:14;99396.91;;;12.76;35.01
33845;BME280;20145;43.118;25.694;2023-03-14T08:39:40;99398.25;;;12.94;35.93
33845;BME280;20145;43.118;25.694;2023-03-14T08:42:06;99403.78;;;13.16;35.28
33845;BME280;20145;43.118;25.694;2023-03-14T08:44:31;99395.84;;;13.25;34.28
33845;BME280;20145;43.118;25.694;2023-03-14T08:46:57;99393.94;;;13.33;34.91
33845;BME280;20145;43.118;25.694;2023-03-14T08:49:22;99375.59;;;13.41;35.21
33845;BME280;20145;43.118;25.694;2023-03-14T08:51:48;99384.88;;;13.51;34.23
33845;BME280;20145;43.118;25.694;2023-03-14T08:54:13;99375.91;;;13.65;36.04
33845;BME280;20145;43.118;25.694;2023-03-14T08:56:39;99381.75;;;13.73;35.39
33845;BME280;20145;43.118;25.694;2023-03-14T08:59:05;99373.78;;;13.80;34.94
33845;BME280;20145;43.118;25.694;2023-03-14T09:01:32;99369.16;;;13.92;34.79
33845;BME280;20145;43.118;25.694;2023-03-14T09:03:57;99363.84;;;13.96;34.14
33845;BME280;20145;43.118;25.694;2023-03-14T09:06:23;99345.72;;;13.95;33.38
33845;BME280;20145;43.118;25.694;2023-03-14T09:08:49;99343.78;;;14.03;34.50
33845;BME280;20145;43.118;25.694;2023-03-14T09:11:14;99357.13;;;14.20;32.23
33845;BME280;20145;43.118;25.694;2023-03-14T09:13:41;99340.94;;;14.12;32.79
33845;BME280;20145;43.118;25.694;2023-03-14T09:16:07;99344.97;;;14.22;32.34
33845;BME280;20145;43.118;25.694;2023-03-14T09:18:33;99345.56;;;14.32;31.68
33845;BME280;20145;43.118;25.694;2023-03-14T09:20:59;99343.59;;;14.40;31.50
33845;BME280;20145;43.118;25.694;2023-03-14T09:23:24;99321.97;;;14.40;31.84
33845;BME280;20145;43.118;25.694;2023-03-14T09:26:00;99342.88;;;14.66;31.85
33845;BME280;20145;43.118;25.694;2023-03-14T09:28:26;99334.94;;;14.71;30.61
33845;BME280;20145;43.118;25.694;2023-03-14T09:30:52;99330.25;;;14.82;30.78
33845;BME280;20145;43.118;25.694;2023-03-14T09:33:17;99326.50;;;14.92;30.13
33845;BME280;20145;43.118;25.694;2023-03-14T09:35:44;99320.84;;;15.06;28.79
33845;BME280;20145;43.118;25.694;2023-03-14T09:38:09;99319.59;;;15.18;28.54
33845;BME280;20145;43.118;25.694;2023-03-14T09:40:36;99312.22;;;15.32;29.12
33845;BME280;20145;43.118;25.694;2023-03-14T09:43:03;99303.47;;;15.35;29.03
33845;BME280;20145;43.118;25.694;2023-03-14T09:45:35;99309.22;;;15.45;29.13
33845;BME280;20145;43.118;25.694;2023-03-14T09:48:03;99301.78;;;15.59;27.46
33845;BME280;20145;43.118;25.694;2023-03-14T09:50:48;99287.88;;;15.60;27.90
33845;BME280;20145;43.118;25.694;2023-03-14T09:53:18;99290.28;;;15.66;26.46
33845;BME280;20145;43.118;25.694;2023-03-14T09:55:46;99289.06;;;15.76;26.46
33845;BME280;20145;43.118;25.694;2023-03-14T09:58:19;99288.00;;;15.82;27.72
33845;BME280;20145;43.118;25.694;2023-03-14T10:00:45;99285.81;;;15.95;25.71
33845;BME280;20145;43.118;25.694;2023-03-14T10:05:40;99267.22;;;16.05;25.02
33845;BME280;20145;43.118;25.694;2023-03-14T10:08:10;99266.84;;;16.16;26.06
33845;BME280;20145;43.118;25.694;2023-03-14T10:10:36;99264.16;;;16.18;26.27
33845;BME280;20145;43.118;25.694;2023-03-14T10:13:14;99259.47;;;16.27;25.21
33845;BME280;20145;43.118;25.694;2023-03-14T10:15:40;99249.50;;;16.39;25.19
33845;BME280;20145;43.118;25.694;2023-03-14T10:18:11;99247.38;;;16.48;25.34
33845;BME280;20145;43.118;25.694;2023-03-14T10:20:43;99244.03;;;16.45;23.47
33845;BME280;20145;43.118;25.694;2023-03-14T10:25:43;99227.88;;;16.59;24.50
33845;BME280;20145;43.118;25.694;2023-03-14T10:28:53;99230.31;;;16.63;23.26
33845;BME280;20145;43.118;25.694;2023-03-14T10:31:18;99225.41;;;16.78;23.09
33845;BME280;20145;43.118;25.694;2023-03-14T10:33:58;99211.69;;;16.72;23.09
33845;BME280;20145;43.118;25.694;2023-03-14T10:36:28;99208.09;;;16.77;21.31
33845;BME280;20145;43.118;25.694;2023-03-14T10:39:18;99205.78;;;16.91;21.87
33845;BME280;20145;43.118;25.694;2023-03-14T10:41:50;99198.47;;;16.99;22.51
33845;BME280;20145;43.118;25.694;2023-03-14T10:44:21;99205.34;;;17.02;23.44
33845;BME280;20145;43.118;25.694;2023-03-14T10:47:00;99202.50;;;17.06;22.69
33845;BME280;20145;43.118;25.694;2023-03-14T10:49:31;99175.41;;;17.10;22.66
33845;BME280;20145;43.118;25.694;2023-03-14T10:52:14;99177.22;;;17.08;23.04
33845;BME280;20145;43.118;25.694;2023-03-14T10:54:41;99168.34;;;17.12;22.93
33845;BME280;20145;43.118;25.694;2023-03-14T10:57:06;99145.31;;;17.03;22.90
33845;BME280;20145;43.118;25.694;2023-03-14T10:59:36;99148.16;;;17.17;22.21
33845;BME280;20145;43.118;25.694;2023-03-14T11:10:19;99139.81;;;17.30;22.98
33845;BME280;20145;43.118;25.694;2023-03-14T11:15:30;99124.88;;;17.33;23.57
33845;BME280;20145;43.118;25.694;2023-03-14T11:21:07;99103.81;;;17.38;23.29
33845;BME280;20145;43.118;25.694;2023-03-14T11:29:45;99088.16;;;17.38;22.05
33845;BME280;20145;43.118;25.694;2023-03-14T11:35:28;99076.03;;;17.37;22.30
33845;BME280;20145;43.118;25.694;2023-03-14T11:38:24;99066.66;;;17.52;22.81
33845;BME280;20145;43.118;25.694;2023-03-14T11:40:54;99051.63;;;17.57;22.65
33845;BME280;20145;43.118;25.694;2023-03-14T11:46:01;99007.50;;;17.52;23.44
33845;BME280;20145;43.118;25.694;2023-03-14T11:48:36;99027.50;;;17.71;22.80
33845;BME280;20145;43.118;25.694;2023-03-14T11:51:09;99032.66;;;17.91;21.57
33845;BME280;20145;43.118;25.694;2023-03-14T11:53:58;99022.06;;;17.94;21.58
33845;BME280;20145;43.118;25.694;2023-03-14T11:56:39;99008.81;;;17.99;22.08
33845;BME280;20145;43.118;25.694;2023-03-14T11:59:21;99014.72;;;18.02;21.50
33845;BME280;20145;43.118;25.694;2023-03-14T12:02:03;99011.72;;;18.10;22.77
33845;BME280;20145;43.118;25.694;2023-03-14T12:04:50;98999.03;;;18.02;21.56
33845;BME280;20145;43.118;25.694;2023-03-14T12:07:29;98986.06;;;18.01;22.63
33845;BME280;20145;43.118;25.694;2023-03-14T12:09:56;98974.94;;;17.97;22.60
33845;BME280;20145;43.118;25.694;2023-03-14T12:12:25;98996.81;;;18.12;22.22
33845;BME280;20145;43.118;25.694;2023-03-14T12:15:00;98985.94;;;18.21;21.07
33845;BME280;20145;43.118;25.694;2023-03-14T12:17:38;98965.00;;;18.04;20.77
33845;BME280;20145;43.118;25.694;2023-03-14T12:22:45;98978.78;;;18.25;22.57
33845;BME280;20145;43.118;25.694;2023-03-14T12:30:30;98960.13;;;18.33;22.35
33845;BME280;20145;43.118;25.694;2023-03-14T12:38:03;98956.56;;;18.34;21.13
33845;BME280;20145;43.118;25.694;2023-03-14T12:40:33;98942.81;;;18.30;21.50
33845;BME280;20145;43.118;25.694;2023-03-14T12:43:01;98943.59;;;18.32;20.85
33845;BME280;20145;43.118;25.694;2023-03-14T12:45:33;98940.91;;;18.34;22.09
33845;BME280;20145;43.118;25.694;2023-03-14T12:48:42;98931.44;;;18.31;22.10
33845;BME280;20145;43.118;25.694;2023-03-14T12:51:00;98925.91;;;18.37;21.83
33845;BME280;20145;43.118;25.694;2023-03-14T12:53:44;98919.84;;;18.37;21.92
33845;BME280;20145;43.118;25.694;2023-03-14T13:04:42;98914.22;;;18.44;23.06
33845;BME280;20145;43.118;25.694;2023-03-14T13:07:28;98899.72;;;18.39;23.30
33845;BME280;20145;43.118;25.694;2023-03-14T13:10:04;98890.44;;;18.33;22.90
33845;BME280;20145;43.118;25.694;2023-03-14T13:15:33;98882.97;;;18.43;23.77
33845;BME280;20145;43.118;25.694;2023-03-14T13:18:02;98880.44;;;18.41;23.72
33845;BME280;20145;43.118;25.694;2023-03-14T13:20:35;98882.38;;;18.38;23.08
33845;BME280;20145;43.118;25.694;2023-03-14T13:23:02;98864.53;;;18.28;23.64
33845;BME280;20145;43.118;25.694;2023-03-14T13:25:35;98872.66;;;18.40;24.07
33845;BME280;20145;43.118;25.694;2023-03-14T13:28:02;98868.88;;;18.45;24.07
33845;BME280;20145;43.118;25.694;2023-03-14T13:30:38;98868.13;;;18.43;22.52
33845;BME280;20145;43.118;25.694;2023-03-14T13:33:05;98846.97;;;18.32;23.61
33845;BME280;20145;43.118;25.694;2023-03-14T13:35:43;98850.09;;;18.39;23.87
33845;BME280;20145;43.118;25.694;2023-03-14T13:38:19;98845.78;;;18.38;23.24
33845;BME280;20145;43.118;25.694;2023-03-14T13:40:46;98849.06;;;18.41;23.71
33845;BME280;20145;43.118;25.694;2023-03-14T13:43:18;98827.75;;;18.33;24.39
33845;BME280;20145;43.118;25.694;2023-03-14T13:45:56;98834.00;;;18.46;24.57
33845;BME280;20145;43.118;25.694;2023-03-14T13:48:28;98831.41;;;18.46;24.23
33845;BME280;20145;43.118;25.694;2023-03-14T13:51:05;98817.56;;;18.44;23.75
33845;BME280;20145;43.118;25.694;2023-03-14T13:53:44;98822.44;;;18.50;23.69
33845;BME280;20145;43.118;25.694;2023-03-14T13:56:11;98825.66;;;18.56;25.14
33845;BME280;20145;43.118;25.694;2023-03-14T13:58:37;98827.50;;;18.54;24.85
33845;BME280;20145;43.118;25.694;2023-03-14T14:01:06;98803.66;;;18.44;24.46